Time;durP1;ratioP1;P1;durP2;ratioP2;P2;SDS_P1;SDS_P2;PMS_P1;PMS_P2;Temp;Humidity;BMP_temperature;BMP_pressure;BME280_temperature;BME280_humidity;BME280_pressure;Samples;Min_cycle;Max_cycle;Signal;HPM_P1;HPM_P2
2021/10/06 00:01:00;;;;;;;;;;;;;;;21.70;53.89;101228.66;2099470;28;1024;-61
2021/10/06 00:02:00;;;;;;;;;;;;;;;21.69;53.98;101226.88;2099720;28;1031;-62
2021/10/06 00:03:00;;;;;;;;;;;;;;;21.71;53.52;101223.22;2099758;28;906;-61
2021/10/06 00:04:00;;;;;;;;;;;;;;;21.69;53.31;101219.69;2099402;28;1421;-62
2021/10/06 00:05:00;;;;;;;;;;;;;;;21.69;54.20;101222.38;2099635;28;783;-61
2021/10/06 00:06:01;;;;;;;;;;;;;;;21.66;53.60;101219.78;2099752;28;850;-61
2021/10/06 00:07:01;;;;;;;;;;;;;;;21.69;53.99;101214.31;2099583;28;976;-61
2021/10/06 00:08:01;;;;;;;;;;;;;;;21.68;53.91;101217.94;2099697;28;774;-62
2021/10/06 00:09:02;;;;;;;;;;;;;;;21.69;53.81;101210.72;2099491;28;791;-61
2021/10/06 00:10:03;;;;;;;;;;;;;;;21.67;53.89;101209.88;2099184;28;1906;-60
2021/10/06 00:11:04;;;;;;;;;;;;;;;21.69;53.58;101211.59;2099588;28;1279;-62
2021/10/06 00:12:04;;;;;;;;;;;;;;;21.68;53.32;101203.56;2099365;28;1191;-61
2021/10/06 00:13:04;;;;;;;;;;;;;;;21.66;53.38;101200.03;2099734;28;1023;-61
2021/10/06 00:14:05;;;;;;;;;;;;;;;21.66;53.76;101200.91;2099775;28;767;-61
2021/10/06 00:15:06;;;;;;;;;;;;;;;21.67;53.36;101202.69;2099079;28;1203;-61
2021/10/06 00:16:09;;;;;;;;;;;;;;;21.68;53.58;101193.66;2099119;28;1327;-61
2021/10/06 00:17:10;;;;;;;;;;;;;;;21.64;53.24;101196.50;2099001;28;783;-62
2021/10/06 00:18:10;;;;;;;;;;;;;;;21.69;53.07;101190.03;2099550;28;913;-61
2021/10/06 00:19:11;;;;;;;;;;;;;;;21.67;53.81;101197.28;2099696;28;783;-61
2021/10/06 00:20:12;;;;;;;;;;;;;;;21.64;53.95;101201.88;2099696;28;956;-61
2021/10/06 00:21:12;;;;;;;;;;;;;;;21.67;53.47;101191.91;2099698;28;858;-62
2021/10/06 00:22:12;;;;;;;;;;;;;;;21.67;53.49;101202.69;2099762;28;778;-61
2021/10/06 00:23:12;;;;;;;;;;;;;;;21.65;53.45;101193.75;2099290;28;1016;-61
2021/10/06 00:24:12;;;;;;;;;;;;;;;21.65;53.70;101196.47;2099662;28;1032;-62
2021/10/06 00:25:13;;;;;;;;;;;;;;;21.67;53.70;101194.59;2099650;28;799;-61
2021/10/06 00:26:13;;;;;;;;;;;;;;;21.65;53.78;101196.47;2099717;28;977;-61
2021/10/06 00:27:13;;;;;;;;;;;;;;;21.66;53.50;101190.13;2099674;28;770;-61
2021/10/06 00:28:14;;;;;;;;;;;;;;;21.64;53.51;101188.41;2099713;28;929;-61
2021/10/06 00:29:14;;;;;;;;;;;;;;;21.64;53.69;101193.78;2099017;28;1305;-61
2021/10/06 00:30:14;;;;;;;;;;;;;;;21.64;53.38;101188.41;2099000;28;1945;-63
2021/10/06 00:31:14;;;;;;;;;;;;;;;21.66;53.76;101182.03;2099511;28;1031;-61
2021/10/06 00:32:15;;;;;;;;;;;;;;;21.64;53.38;101178.53;2099660;28;826;-61
2021/10/06 00:33:15;;;;;;;;;;;;;;;21.64;53.31;101180.31;2099551;28;941;-61
2021/10/06 00:34:15;;;;;;;;;;;;;;;21.66;53.86;101176.66;2099689;28;775;-61
2021/10/06 00:35:15;;;;;;;;;;;;;;;21.64;53.42;101164.13;2099659;28;841;-61
2021/10/06 00:36:16;;;;;;;;;;;;;;;21.61;54.23;101175.88;2099568;28;795;-61
2021/10/06 00:37:16;;;;;;;;;;;;;;;21.61;53.68;101168.66;2099561;28;1339;-61
2021/10/06 00:38:16;;;;;;;;;;;;;;;21.65;53.16;101176.69;2099610;28;981;-61
2021/10/06 00:39:16;;;;;;;;;;;;;;;21.62;53.30;101161.50;2099522;28;759;-61
2021/10/06 00:40:16;;;;;;;;;;;;;;;21.62;54.09;101162.38;2099633;28;905;-61
2021/10/06 00:41:17;;;;;;;;;;;;;;;21.62;53.71;101166.91;2099399;28;845;-62
2021/10/06 00:42:17;;;;;;;;;;;;;;;21.62;53.21;101164.22;2099595;28;897;-62
2021/10/06 00:43:17;;;;;;;;;;;;;;;21.62;53.28;101156.13;2099546;28;1016;-61
2021/10/06 00:44:18;;;;;;;;;;;;;;;21.64;53.39;101146.16;2099577;28;977;-61
2021/10/06 00:45:18;;;;;;;;;;;;;;;21.66;53.03;101147.00;2099347;28;945;-61
2021/10/06 00:46:18;;;;;;;;;;;;;;;21.62;53.79;101151.59;2099602;28;1036;-61
2021/10/06 00:47:18;;;;;;;;;;;;;;;21.64;53.77;101150.66;2099511;28;833;-61
2021/10/06 00:48:18;;;;;;;;;;;;;;;21.63;53.15;101144.41;2099599;28;834;-61
2021/10/06 00:49:19;;;;;;;;;;;;;;;21.64;53.81;101145.25;2099421;28;1890;-61
2021/10/06 00:50:19;;;;;;;;;;;;;;;21.61;54.00;101148.94;2099500;28;889;-61
2021/10/06 00:51:20;;;;;;;;;;;;;;;21.57;54.30;101141.88;2099538;28;969;-61
2021/10/06 00:52:20;;;;;;;;;;;;;;;21.60;53.63;101137.25;2090605;28;878;-61
2021/10/06 00:53:23;;;;;;;;;;;;;;;21.62;54.01;101145.34;2090442;28;1019;-61
2021/10/06 00:54:23;;;;;;;;;;;;;;;21.61;53.78;101138.16;2099183;28;1316;-61
2021/10/06 00:55:23;;;;;;;;;;;;;;;21.64;52.85;101132.69;2099442;28;918;-61
2021/10/06 00:56:23;;;;;;;;;;;;;;;21.66;53.69;101138.00;2099388;28;775;-61
2021/10/06 00:57:23;;;;;;;;;;;;;;;21.61;54.18;101135.44;2099486;28;949;-61
2021/10/06 00:58:24;;;;;;;;;;;;;;;21.62;52.94;101139.94;2099532;28;850;-61
2021/10/06 00:59:24;;;;;;;;;;;;;;;21.62;53.79;101134.56;2099132;28;811;-62
2021/10/06 01:00:24;;;;;;;;;;;;;;;21.61;53.90;101135.44;2090669;28;1009;-61
2021/10/06 01:01:24;;;;;;;;;;;;;;;21.64;53.90;101135.38;2090680;28;763;-62
2021/10/06 01:02:24;;;;;;;;;;;;;;;21.62;54.00;101129.16;2099445;28;850;-61
2021/10/06 01:03:25;;;;;;;;;;;;;;;21.59;53.23;101121.13;2099380;28;1513;-61
2021/10/06 01:04:25;;;;;;;;;;;;;;;21.58;53.61;101128.31;2099251;28;1051;-61
2021/10/06 01:05:25;;;;;;;;;;;;;;;21.61;53.86;101121.97;2099346;28;1377;-61
2021/10/06 01:06:26;;;;;;;;;;;;;;;21.61;53.63;101128.22;2099531;28;1039;-61
2021/10/06 01:07:26;;;;;;;;;;;;;;;21.60;53.34;101126.47;2099147;28;850;-61
2021/10/06 01:08:26;;;;;;;;;;;;;;;21.62;53.01;101126.47;2099563;28;898;-61
2021/10/06 01:09:28;;;;;;;;;;;;;;;21.60;53.06;101123.78;2099239;28;1902;-61
2021/10/06 01:10:28;;;;;;;;;;;;;;;21.60;54.09;101114.81;2099432;28;980;-61
2021/10/06 01:11:28;;;;;;;;;;;;;;;21.60;53.01;101114.81;2099208;28;1215;-61
2021/10/06 01:12:28;;;;;;;;;;;;;;;21.61;53.30;101122.84;2099322;28;834;-62
2021/10/06 01:13:29;;;;;;;;;;;;;;;21.60;54.12;101112.97;2099442;28;901;-62
2021/10/06 01:14:29;;;;;;;;;;;;;;;21.60;53.07;101118.38;2099298;28;813;-62
2021/10/06 01:15:29;;;;;;;;;;;;;;;21.61;53.51;101109.34;2099534;28;973;-61
2021/10/06 01:16:29;;;;;;;;;;;;;;;21.61;54.44;101114.75;2099489;28;1008;-62
2021/10/06 01:17:29;;;;;;;;;;;;;;;21.61;53.25;101113.88;2100581;28;964;-61
2021/10/06 01:18:30;;;;;;;;;;;;;;;21.65;53.56;101111.97;2101016;28;968;-61
2021/10/06 01:19:30;;;;;;;;;;;;;;;21.58;53.94;101101.38;2101003;28;806;-61
2021/10/06 01:20:30;;;;;;;;;;;;;;;21.61;53.50;101109.34;2100971;28;766;-62
2021/10/06 01:21:30;;;;;;;;;;;;;;;21.62;53.28;101112.97;2100972;28;1007;-61
2021/10/06 01:22:31;;;;;;;;;;;;;;;21.57;53.33;101096.91;2100861;28;1035;-61
2021/10/06 01:23:31;;;;;;;;;;;;;;;21.61;53.58;101105.78;2100962;28;1039;-61
2021/10/06 01:24:31;;;;;;;;;;;;;;;21.61;53.03;101101.28;2100453;28;748;-62
2021/10/06 01:25:31;;;;;;;;;;;;;;;21.59;53.69;101099.56;2100760;28;1368;-62
2021/10/06 01:26:33;;;;;;;;;;;;;;;21.60;53.23;101109.44;2100982;28;774;-61
2021/10/06 01:27:34;;;;;;;;;;;;;;;21.60;53.37;101104.03;2100815;28;897;-61
2021/10/06 01:28:35;;;;;;;;;;;;;;;21.58;53.24;101089.72;2100950;28;973;-61
2021/10/06 01:29:35;;;;;;;;;;;;;;;21.60;53.34;101086.03;2100669;28;1968;-62
2021/10/06 01:30:35;;;;;;;;;;;;;;;21.64;53.66;101094.03;2100877;28;846;-61
2021/10/06 01:31:35;;;;;;;;;;;;;;;21.60;53.54;101079.78;2100796;28;968;-61
2021/10/06 01:32:36;;;;;;;;;;;;;;;21.59;53.42;101072.63;2100606;28;846;-61
2021/10/06 01:33:36;;;;;;;;;;;;;;;21.61;53.37;101073.44;2100842;28;759;-61
2021/10/06 01:34:37;;;;;;;;;;;;;;;21.60;53.47;101071.69;2100841;28;972;-61
2021/10/06 01:35:37;;;;;;;;;;;;;;;21.59;53.42;101075.31;2100717;28;957;-61
2021/10/06 01:36:38;;;;;;;;;;;;;;;21.60;53.84;101061.75;2100812;28;1156;-61
2021/10/06 01:37:38;;;;;;;;;;;;;;;21.58;53.31;101068.16;2100678;28;894;-62
2021/10/06 01:38:38;;;;;;;;;;;;;;;21.59;53.75;101068.09;2100636;28;1262;-61
2021/10/06 01:39:39;;;;;;;;;;;;;;;21.59;53.48;101067.22;2100794;28;837;-61
2021/10/06 01:40:39;;;;;;;;;;;;;;;21.58;53.60;101066.31;2100671;28;1024;-61
2021/10/06 01:41:39;;;;;;;;;;;;;;;21.61;53.72;101068.06;2100541;28;780;-61
2021/10/06 01:42:40;;;;;;;;;;;;;;;21.59;53.89;101057.31;2100805;28;795;-62
2021/10/06 01:43:40;;;;;;;;;;;;;;;21.57;53.18;101066.41;2100769;28;774;-61
2021/10/06 01:44:40;;;;;;;;;;;;;;;21.55;54.10;101066.44;2100765;28;1028;-61
2021/10/06 01:45:42;;;;;;;;;;;;;;;21.57;53.58;101071.78;2100774;28;977;-61
2021/10/06 01:46:43;;;;;;;;;;;;;;;21.59;54.17;101070.78;2100686;28;814;-61
2021/10/06 01:47:43;;;;;;;;;;;;;;;21.59;53.62;101064.53;2091799;28;1145;-62
2021/10/06 01:48:43;;;;;;;;;;;;;;;21.55;53.38;101062.88;2091959;28;854;-61
2021/10/06 01:49:43;;;;;;;;;;;;;;;21.58;53.24;101057.38;2100606;28;1901;-61
2021/10/06 01:50:43;;;;;;;;;;;;;;;21.58;53.30;101063.63;2100730;28;799;-61
2021/10/06 01:51:44;;;;;;;;;;;;;;;21.60;53.87;101056.38;2100379;28;1043;-61
2021/10/06 01:52:44;;;;;;;;;;;;;;;21.59;53.32;101054.63;2100721;28;1018;-62
2021/10/06 01:53:45;;;;;;;;;;;;;;;21.58;52.94;101050.16;2100693;28;989;-62
2021/10/06 01:54:45;;;;;;;;;;;;;;;21.56;53.83;101054.72;2100687;28;670;-61
2021/10/06 01:55:46;;;;;;;;;;;;;;;21.56;53.74;101052.03;2100675;28;1227;-61
2021/10/06 01:56:46;;;;;;;;;;;;;;;21.60;53.72;101053.69;2100698;28;1078;-62
2021/10/06 01:57:46;;;;;;;;;;;;;;;21.59;53.63;101048.34;2100613;28;846;-61
2021/10/06 01:58:47;;;;;;;;;;;;;;;21.57;53.84;101061.00;2100686;28;867;-61
2021/10/06 01:59:48;;;;;;;;;;;;;;;21.58;53.20;101047.47;2100419;28;783;-61
2021/10/06 02:00:49;;;;;;;;;;;;;;;21.57;53.85;101050.22;2100617;28;1027;-62
2021/10/06 02:01:49;;;;;;;;;;;;;;;21.57;53.67;101048.38;2100577;28;775;-62
2021/10/06 02:02:49;;;;;;;;;;;;;;;21.54;53.46;101051.19;2091633;28;1040;-61
2021/10/06 02:03:49;;;;;;;;;;;;;;;21.55;53.23;101049.38;2091724;28;1016;-62
2021/10/06 02:04:49;;;;;;;;;;;;;;;21.53;54.47;101043.16;2100490;28;672;-62
2021/10/06 02:05:49;;;;;;;;;;;;;;;21.57;53.23;101040.31;2100509;28;850;-62
2021/10/06 02:06:50;;;;;;;;;;;;;;;21.56;54.21;101043.06;2100632;28;878;-61
2021/10/06 02:07:50;;;;;;;;;;;;;;;21.58;53.21;101038.50;2100420;28;973;-62
2021/10/06 02:08:50;;;;;;;;;;;;;;;21.58;54.03;101036.69;2100604;28;861;-61
2021/10/06 02:09:50;;;;;;;;;;;;;;;21.58;53.00;101033.13;2100293;28;1914;-61
2021/10/06 02:10:50;;;;;;;;;;;;;;;21.57;53.30;101042.13;2100338;28;972;-61
2021/10/06 02:11:50;;;;;;;;;;;;;;;21.56;53.24;101029.59;2100398;28;865;-61
2021/10/06 02:12:51;;;;;;;;;;;;;;;21.56;53.30;101027.75;2100533;28;965;-62
2021/10/06 02:13:51;;;;;;;;;;;;;;;21.59;53.70;101032.19;2100547;28;827;-62
2021/10/06 02:14:51;;;;;;;;;;;;;;;21.57;52.96;101024.13;2100537;28;886;-61
2021/10/06 02:15:51;;;;;;;;;;;;;;;21.59;53.40;101027.66;2100439;28;1040;-61
2021/10/06 02:16:51;;;;;;;;;;;;;;;21.55;53.17;101020.59;2100163;28;1141;-62
2021/10/06 02:17:51;;;;;;;;;;;;;;;21.56;53.18;101025.06;2100588;28;771;-62
2021/10/06 02:18:52;;;;;;;;;;;;;;;21.56;54.28;101024.19;2100520;28;973;-61
2021/10/06 02:19:52;;;;;;;;;;;;;;;21.57;53.92;101029.53;2100555;28;858;-61
2021/10/06 02:20:52;;;;;;;;;;;;;;;21.55;53.25;101028.69;2100455;28;910;-62
2021/10/06 02:21:52;;;;;;;;;;;;;;;21.55;53.73;101025.13;2100264;28;1023;-62
2021/10/06 02:22:52;;;;;;;;;;;;;;;21.56;53.34;101033.16;2100492;28;988;-61
2021/10/06 02:23:52;;;;;;;;;;;;;;;21.57;53.24;101023.28;2100449;28;1035;-61
2021/10/06 02:24:52;;;;;;;;;;;;;;;21.53;54.19;101024.31;2099971;28;1041;-61
2021/10/06 02:25:53;;;;;;;;;;;;;;;21.54;53.86;101034.16;2100432;28;1095;-61
2021/10/06 02:26:53;;;;;;;;;;;;;;;21.58;53.09;101027.72;2100329;28;1012;-61
2021/10/06 02:27:53;;;;;;;;;;;;;;;21.55;53.60;101030.53;2100382;28;771;-61
2021/10/06 02:28:53;;;;;;;;;;;;;;;21.54;53.54;101018.84;2100422;28;965;-62
2021/10/06 02:29:53;;;;;;;;;;;;;;;21.55;53.26;101014.34;2100368;28;1898;-62
2021/10/06 02:30:54;;;;;;;;;;;;;;;21.56;53.98;101019.69;2100472;28;1028;-63
2021/10/06 02:31:54;;;;;;;;;;;;;;;21.54;54.00;101013.47;2100439;28;937;-62
2021/10/06 02:32:54;;;;;;;;;;;;;;;21.56;53.77;101005.34;2100295;28;980;-62
2021/10/06 02:33:54;;;;;;;;;;;;;;;21.56;53.48;101013.41;2100317;28;826;-61
2021/10/06 02:34:55;;;;;;;;;;;;;;;21.56;54.07;101011.59;2100472;28;854;-62
2021/10/06 02:35:55;;;;;;;;;;;;;;;21.53;54.06;101006.31;2100374;28;1043;-62
2021/10/06 02:36:55;;;;;;;;;;;;;;;21.56;53.17;101006.19;2100371;28;1467;-63
2021/10/06 02:37:55;;;;;;;;;;;;;;;21.55;53.40;101001.75;2100399;28;859;-63
2021/10/06 02:38:55;;;;;;;;;;;;;;;21.58;53.46;101007.03;2100347;28;989;-63
2021/10/06 02:39:55;;;;;;;;;;;;;;;21.59;54.02;101005.22;2100415;28;890;-63
2021/10/06 02:40:56;;;;;;;;;;;;;;;21.58;52.94;100998.94;2100075;28;961;-63
2021/10/06 02:41:56;;;;;;;;;;;;;;;21.56;54.35;101003.50;2100261;28;973;-62
2021/10/06 02:42:56;;;;;;;;;;;;;;;21.55;53.33;101007.13;2100333;28;803;-60
2021/10/06 02:43:56;;;;;;;;;;;;;;;21.56;53.60;101016.13;2100267;28;957;-60
2021/10/06 02:44:56;;;;;;;;;;;;;;;21.59;53.72;101010.63;2100315;28;847;-60
2021/10/06 02:45:57;;;;;;;;;;;;;;;21.58;54.03;101020.50;2100238;28;953;-60
2021/10/06 02:46:57;;;;;;;;;;;;;;;21.63;53.20;101012.31;2100104;28;1332;-58
2021/10/06 02:47:57;;;;;;;;;;;;;;;21.64;53.18;101016.75;2100350;28;909;-58
2021/10/06 02:48:57;;;;;;;;;;;;;;;21.66;53.50;101014.91;2099992;28;1142;-57
2021/10/06 02:49:57;;;;;;;;;;;;;;;21.68;53.74;101014.81;2100204;28;1893;-58
2021/10/06 02:50:57;;;;;;;;;;;;;;;21.69;53.22;101013.88;2100263;28;976;-58
2021/10/06 02:51:58;;;;;;;;;;;;;;;21.65;53.11;100972.69;2099904;28;973;-58
2021/10/06 02:52:58;;;;;;;;;;;;;;;21.67;53.79;100969.94;2100242;28;787;-59
2021/10/06 02:53:58;;;;;;;;;;;;;;;21.67;53.27;100967.22;2100141;28;802;-62
2021/10/06 02:54:58;;;;;;;;;;;;;;;21.65;54.14;100964.59;2100004;28;1336;-60
2021/10/06 02:55:58;;;;;;;;;;;;;;;21.65;54.00;100971.81;2100162;28;841;-61
2021/10/06 02:57:01;;;;;;;;;;;;;;;21.66;53.17;100952.88;2100301;28;834;-61
2021/10/06 02:58:01;;;;;;;;;;;;;;;21.63;53.57;100955.69;2100195;28;840;-61
2021/10/06 02:59:01;;;;;;;;;;;;;;;21.62;53.50;101026.72;2100051;28;916;-60
2021/10/06 03:00:03;;;;;;;;;;;;;;;21.62;53.65;101054.53;2100072;28;972;-61
2021/10/06 03:01:03;;;;;;;;;;;;;;;21.60;53.52;101026.72;2099399;28;1151;-61
2021/10/06 03:02:03;;;;;;;;;;;;;;;21.58;53.58;101022.34;2099612;28;845;-61
2021/10/06 03:03:04;;;;;;;;;;;;;;;21.57;54.31;101017.88;2099759;28;992;-60
2021/10/06 03:04:04;;;;;;;;;;;;;;;21.53;54.54;101011.69;2099423;28;949;-61
2021/10/06 03:05:04;;;;;;;;;;;;;;;21.55;53.75;101007.13;2099536;28;1022;-60
2021/10/06 03:06:04;;;;;;;;;;;;;;;21.56;53.86;101014.28;2100142;28;965;-61
2021/10/06 03:07:05;;;;;;;;;;;;;;;21.55;54.14;101014.34;2100069;28;770;-61
2021/10/06 03:08:05;;;;;;;;;;;;;;;21.56;54.26;101022.38;2099988;28;925;-60
2021/10/06 03:09:05;;;;;;;;;;;;;;;21.55;54.09;101017.91;2099950;28;996;-61
2021/10/06 03:10:07;;;;;;;;;;;;;;;21.56;53.70;101021.50;2099861;28;1987;-61
2021/10/06 03:11:07;;;;;;;;;;;;;;;21.55;54.16;101008.97;2099645;28;1219;-61
2021/10/06 03:12:07;;;;;;;;;;;;;;;21.55;53.75;101004.44;2100061;28;873;-61
2021/10/06 03:13:07;;;;;;;;;;;;;;;21.53;54.26;101000.03;2099488;28;795;-61
2021/10/06 03:14:07;;;;;;;;;;;;;;;21.55;53.26;100995.47;2099227;28;980;-61
2021/10/06 03:15:08;;;;;;;;;;;;;;;21.50;53.78;100992.94;2100110;28;778;-61
2021/10/06 03:16:09;;;;;;;;;;;;;;;21.53;53.75;100991.97;2100084;28;770;-61
2021/10/06 03:17:09;;;;;;;;;;;;;;;21.55;53.99;100988.25;2099950;28;777;-62
2021/10/06 03:18:09;;;;;;;;;;;;;;;21.54;54.28;101002.69;2100054;28;837;-61
2021/10/06 03:19:09;;;;;;;;;;;;;;;21.52;53.58;101006.38;2099991;28;842;-61
2021/10/06 03:20:10;;;;;;;;;;;;;;;21.54;54.50;101001.81;2100024;28;806;-60
2021/10/06 03:21:10;;;;;;;;;;;;;;;21.54;53.64;100999.97;2099957;28;1051;-61
2021/10/06 03:22:11;;;;;;;;;;;;;;;21.53;54.19;101000.03;2099647;28;782;-61
2021/10/06 03:23:11;;;;;;;;;;;;;;;21.52;54.48;100990.19;2099975;28;1012;-61
2021/10/06 03:24:11;;;;;;;;;;;;;;;21.51;54.05;100991.13;2099992;28;1015;-61
2021/10/06 03:25:11;;;;;;;;;;;;;;;21.52;53.68;100991.06;2099939;28;993;-60
2021/10/06 03:26:11;;;;;;;;;;;;;;;21.52;54.19;100991.06;2099966;28;787;-61
2021/10/06 03:27:13;;;;;;;;;;;;;;;21.52;53.73;100985.69;2099926;28;865;-61
2021/10/06 03:28:13;;;;;;;;;;;;;;;21.51;54.54;100991.13;2099992;28;801;-60
2021/10/06 03:29:13;;;;;;;;;;;;;;;21.52;54.38;100995.59;2099824;28;980;-61
2021/10/06 03:30:13;;;;;;;;;;;;;;;21.52;54.01;100992.91;2099577;28;1901;-61
2021/10/06 03:31:14;;;;;;;;;;;;;;;21.51;54.04;100986.59;2099841;28;961;-61
2021/10/06 03:32:14;;;;;;;;;;;;;;;21.51;53.44;100989.31;2099961;28;980;-61
2021/10/06 03:33:14;;;;;;;;;;;;;;;21.50;53.37;100990.25;2099559;28;821;-61
2021/10/06 03:34:15;;;;;;;;;;;;;;;21.51;54.10;100988.44;2099880;28;771;-62
2021/10/06 03:35:18;;;;;;;;;;;;;;;21.53;53.22;100984.75;2099893;28;974;-61
2021/10/06 03:36:19;;;;;;;;;;;;;;;21.53;54.50;100982.03;2099494;28;1402;-61
2021/10/06 03:37:19;;;;;;;;;;;;;;;21.51;54.36;100981.22;2099905;28;870;-60
2021/10/06 03:38:19;;;;;;;;;;;;;;;21.53;53.33;100984.75;2099891;28;989;-61
2021/10/06 03:39:19;;;;;;;;;;;;;;;21.51;53.81;100978.53;2099819;28;922;-61
2021/10/06 03:40:20;;;;;;;;;;;;;;;21.50;53.57;100982.16;2099491;28;981;-61
2021/10/06 03:41:20;;;;;;;;;;;;;;;21.49;53.67;100977.69;2099626;28;1012;-60
2021/10/06 03:42:20;;;;;;;;;;;;;;;21.52;53.42;100982.13;2099578;28;1111;-60
2021/10/06 03:43:20;;;;;;;;;;;;;;;21.51;54.21;100980.34;2090691;28;1142;-61
2021/10/06 03:44:20;;;;;;;;;;;;;;;21.49;54.11;100988.47;2091069;28;1016;-61
2021/10/06 03:45:20;;;;;;;;;;;;;;;21.50;53.84;100973.19;2099768;28;943;-61
2021/10/06 03:46:21;;;;;;;;;;;;;;;21.48;53.77;100976.81;2099791;28;1086;-61
2021/10/06 03:47:21;;;;;;;;;;;;;;;21.51;54.01;100973.13;2099486;28;1032;-61
2021/10/06 03:48:21;;;;;;;;;;;;;;;21.50;53.90;100974.06;2099820;28;768;-61
2021/10/06 03:49:21;;;;;;;;;;;;;;;21.51;53.93;100974.97;2099810;28;790;-61
2021/10/06 03:50:21;;;;;;;;;;;;;;;21.50;53.35;100979.44;2090819;28;1953;-61
2021/10/06 03:51:21;;;;;;;;;;;;;;;21.52;53.68;100974.03;2090943;28;897;-61
2021/10/06 03:52:22;;;;;;;;;;;;;;;21.51;53.82;100981.22;2099380;28;855;-61
2021/10/06 03:53:22;;;;;;;;;;;;;;;21.52;53.25;100980.28;2090877;28;996;-60
2021/10/06 03:54:22;;;;;;;;;;;;;;;21.50;54.21;100979.44;2090983;28;779;-61
2021/10/06 03:55:22;;;;;;;;;;;;;;;21.46;53.55;100986.78;2099653;28;862;-61
2021/10/06 03:56:24;;;;;;;;;;;;;;;21.47;53.78;100985.84;2099716;28;957;-61
2021/10/06 03:57:24;;;;;;;;;;;;;;;21.49;53.55;100975.00;2099648;28;922;-61
2021/10/06 03:58:24;;;;;;;;;;;;;;;21.47;53.56;100963.44;2099714;28;854;-61
2021/10/06 03:59:24;;;;;;;;;;;;;;;21.51;53.72;100969.56;2099750;28;1004;-61
2021/10/06 04:00:25;;;;;;;;;;;;;;;21.47;54.25;100972.38;2099670;28;957;-61
2021/10/06 04:01:25;;;;;;;;;;;;;;;21.49;53.93;100969.59;2099369;28;791;-61
2021/10/06 04:02:26;;;;;;;;;;;;;;;21.50;54.05;100971.38;2099748;28;889;-60
2021/10/06 04:03:26;;;;;;;;;;;;;;;21.73;53.46;100969.72;2099714;28;859;-61
2021/10/06 04:04:26;;;;;;;;;;;;;;;22.15;51.93;100968.19;2099800;28;790;-60
2021/10/06 04:05:26;;;;;;;;;;;;;;;22.24;51.91;100975.94;2099768;28;819;-61
2021/10/06 04:06:26;;;;;;;;;;;;;;;22.34;51.17;100963.84;2099317;28;862;-61
2021/10/06 04:07:27;;;;;;;;;;;;;;;22.43;51.09;100969.78;2099642;28;1035;-61
2021/10/06 04:08:27;;;;;;;;;;;;;;;22.48;50.97;100966.03;2099742;28;913;-60
2021/10/06 04:09:27;;;;;;;;;;;;;;;22.52;51.07;100969.47;2098996;28;1910;-60
2021/10/06 04:10:27;;;;;;;;;;;;;;;22.59;50.75;100981.78;2099721;28;847;-60
2021/10/06 04:11:27;;;;;;;;;;;;;;;22.61;50.50;100977.19;2099672;28;850;-61
2021/10/06 04:12:27;;;;;;;;;;;;;;;22.68;50.65;100976.97;2099335;28;764;-61
2021/10/06 04:13:28;;;;;;;;;;;;;;;22.69;50.66;100981.41;2099688;28;863;-61
2021/10/06 04:14:28;;;;;;;;;;;;;;;22.74;50.04;100980.28;2099718;28;982;-61
2021/10/06 04:15:28;;;;;;;;;;;;;;;22.75;50.12;100973.94;2099675;28;1040;-61
2021/10/06 04:16:28;;;;;;;;;;;;;;;22.78;49.86;100971.13;2099526;28;889;-61
2021/10/06 04:17:28;;;;;;;;;;;;;;;22.82;50.13;100961.09;2099756;28;812;-61
2021/10/06 04:18:28;;;;;;;;;;;;;;;22.84;49.66;100961.91;2099430;28;958;-61
2021/10/06 04:19:28;;;;;;;;;;;;;;;22.88;49.49;100958.13;2099676;28;1005;-61
2021/10/06 04:20:29;;;;;;;;;;;;;;;22.90;49.28;100961.66;2099711;28;763;-62
2021/10/06 04:21:29;;;;;;;;;;;;;;;22.93;49.60;100963.34;2099359;28;878;-61
2021/10/06 04:22:29;;;;;;;;;;;;;;;22.94;49.85;100963.28;2099741;28;1036;-61
2021/10/06 04:23:29;;;;;;;;;;;;;;;22.94;50.19;100965.09;2099718;28;772;-61
2021/10/06 04:24:29;;;;;;;;;;;;;;;22.95;49.47;100962.34;2099371;28;768;-61
2021/10/06 04:25:29;;;;;;;;;;;;;;;22.98;49.52;100965.84;2099652;28;961;-61
2021/10/06 04:26:30;;;;;;;;;;;;;;;22.98;49.76;100964.03;2099625;28;871;-61
2021/10/06 04:27:30;;;;;;;;;;;;;;;23.01;49.71;100965.69;2099598;28;1042;-61
2021/10/06 04:28:30;;;;;;;;;;;;;;;23.02;49.57;100962.97;2099671;28;1008;-61
2021/10/06 04:29:30;;;;;;;;;;;;;;;23.01;50.13;100969.31;2099392;28;1989;-61
2021/10/06 04:30:30;;;;;;;;;;;;;;;23.01;50.07;100960.31;2099570;28;811;-61
2021/10/06 04:31:31;;;;;;;;;;;;;;;23.03;50.01;100958.41;2099429;28;961;-61
2021/10/06 04:32:31;;;;;;;;;;;;;;;23.07;49.19;100951.94;2099494;28;880;-61
2021/10/06 04:33:31;;;;;;;;;;;;;;;23.05;49.81;100948.41;2099452;28;854;-61
2021/10/06 04:34:32;;;;;;;;;;;;;;;23.06;50.11;100959.19;2099320;28;1642;-61
2021/10/06 04:35:32;;;;;;;;;;;;;;;23.02;50.19;100967.47;2099583;28;1003;-61
2021/10/06 04:36:32;;;;;;;;;;;;;;;23.04;49.47;100965.56;2099500;28;1193;-61
2021/10/06 04:37:32;;;;;;;;;;;;;;;23.08;49.81;100978.00;2099529;28;969;-60
2021/10/06 04:38:32;;;;;;;;;;;;;;;23.06;49.78;100971.78;2099289;28;909;-61
2021/10/06 04:39:32;;;;;;;;;;;;;;;23.11;49.44;100967.09;2099530;28;881;-61
2021/10/06 04:40:34;;;;;;;;;;;;;;;23.10;49.21;100971.63;2099653;28;771;-61
2021/10/06 04:41:34;;;;;;;;;;;;;;;23.10;49.86;100965.31;2099274;28;791;-60
2021/10/06 04:42:34;;;;;;;;;;;;;;;23.11;50.05;100972.47;2099602;28;945;-61
2021/10/06 04:43:34;;;;;;;;;;;;;;;23.11;48.91;100977.88;2099552;28;960;-61
2021/10/06 04:44:35;;;;;;;;;;;;;;;23.13;49.72;100977.84;2090673;28;1004;-61
2021/10/06 04:45:35;;;;;;;;;;;;;;;23.14;49.58;100988.56;2090829;28;828;-61
2021/10/06 04:46:35;;;;;;;;;;;;;;;23.13;49.15;100984.09;2099162;28;850;-61
2021/10/06 04:47:35;;;;;;;;;;;;;;;23.14;49.97;100988.56;2099539;28;960;-61
2021/10/06 04:48:35;;;;;;;;;;;;;;;23.18;49.30;100981.22;2099589;28;960;-61
2021/10/06 04:49:36;;;;;;;;;;;;;;;23.18;49.22;100984.78;2099512;28;1945;-61
2021/10/06 04:50:36;;;;;;;;;;;;;;;23.13;49.41;100985.94;2099593;28;972;-61
2021/10/06 04:51:36;;;;;;;;;;;;;;;23.17;49.44;100977.63;2099484;28;976;-61
2021/10/06 04:52:36;;;;;;;;;;;;;;;23.10;50.06;100985.13;2100628;28;965;-61
2021/10/06 04:53:36;;;;;;;;;;;;;;;23.15;48.84;100979.53;2101231;28;814;-61
2021/10/06 04:54:36;;;;;;;;;;;;;;;23.15;50.13;100978.66;2101213;28;1020;-61
2021/10/06 04:55:37;;;;;;;;;;;;;;;23.17;49.23;100979.47;2100936;28;858;-61
2021/10/06 04:56:37;;;;;;;;;;;;;;;23.13;50.06;100988.66;2101180;28;869;-61
2021/10/06 04:57:37;;;;;;;;;;;;;;;23.16;49.52;100978.56;2101203;28;854;-61
2021/10/06 04:58:38;;;;;;;;;;;;;;;23.16;49.87;100986.69;2100971;28;786;-61
2021/10/06 04:59:38;;;;;;;;;;;;;;;23.18;49.57;100984.78;2101136;28;973;-61
2021/10/06 05:00:38;;;;;;;;;;;;;;;23.17;49.54;100990.28;2101028;28;845;-61
2021/10/06 05:01:38;;;;;;;;;;;;;;;23.18;49.44;100974.00;2100861;28;965;-62
2021/10/06 05:02:38;;;;;;;;;;;;;;;23.16;49.40;100978.56;2101108;28;756;-61
2021/10/06 05:03:39;;;;;;;;;;;;;;;23.21;49.79;100978.41;2100838;28;1268;-61
2021/10/06 05:04:39;;;;;;;;;;;;;;;23.22;48.92;100974.75;2092123;28;1236;-61
2021/10/06 05:05:40;;;;;;;;;;;;;;;23.21;49.14;100981.97;2092212;28;965;-61
2021/10/06 05:06:40;;;;;;;;;;;;;;;23.22;49.48;100977.47;2100799;28;802;-61
2021/10/06 05:07:40;;;;;;;;;;;;;;;23.22;49.19;100972.94;2101019;28;1015;-61
2021/10/06 05:08:40;;;;;;;;;;;;;;;23.24;49.13;100973.75;2101035;28;883;-62
2021/10/06 05:09:41;;;;;;;;;;;;;;;23.26;49.58;100973.69;2100642;28;1911;-61
2021/10/06 05:10:41;;;;;;;;;;;;;;;23.24;49.28;100967.50;2101019;28;1208;-61
2021/10/06 05:11:41;;;;;;;;;;;;;;;23.23;49.67;100974.72;2101012;28;1226;-61
2021/10/06 05:12:41;;;;;;;;;;;;;;;23.23;49.42;100973.84;2100865;28;1338;-62
2021/10/06 05:13:42;;;;;;;;;;;;;;;23.27;49.03;100972.75;2101002;28;814;-61
2021/10/06 05:14:42;;;;;;;;;;;;;;;23.27;49.46;100969.16;2100974;28;961;-61
2021/10/06 05:15:42;;;;;;;;;;;;;;;23.30;48.93;100971.75;2101008;28;984;-62
2021/10/06 05:16:42;;;;;;;;;;;;;;;23.27;49.75;100977.28;2100940;28;1036;-62